Time;durP1;ratioP1;P1;durP2;ratioP2;P2;SDS_P1;SDS_P2;PMS_P1;PMS_P2;Temp;Humidity;BMP_temperature;BMP_pressure;BME280_temperature;BME280_humidity;BME280_pressure;Samples;Min_cycle;Max_cycle;Signal;HPM_P1;HPM_P2
2023/05/17 00:01:10;;;;;;;15.68;5.55;;;8.50;99.90;;;;;;5108600;28;20417;-44
2023/05/17 00:03:36;;;;;;;19.52;4.95;;;8.40;99.90;;;;;;5108586;28;20077;-44
2023/05/17 00:06:02;;;;;;;13.27;4.82;;;8.50;99.90;;;;;;5092595;28;20551;-45
2023/05/17 00:08:28;;;;;;;10.98;4.95;;;8.40;99.90;;;;;;5091092;28;20069;-45
2023/05/17 00:10:53;;;;;;;14.45;5.10;;;8.40;99.90;;;;;;5108326;28;20023;-45
2023/05/17 00:13:19;;;;;;;17.55;4.60;;;8.40;99.90;;;;;;5108399;28;20091;-44
2023/05/17 00:15:44;;;;;;;10.60;4.30;;;8.40;99.90;;;;;;5097345;28;20035;-44
2023/05/17 00:18:10;;;;;;;15.50;4.45;;;8.40;99.90;;;;;;5090255;28;20481;-43
2023/05/17 00:20:36;;;;;;;15.77;4.22;;;8.30;99.90;;;;;;5109989;28;20055;-44
2023/05/17 00:23:02;;;;;;;11.68;5.28;;;8.30;99.90;;;;;;5109051;28;20077;-44
2023/05/17 00:25:27;;;;;;;13.75;4.55;;;8.20;99.90;;;;;;5107791;28;20035;-45
2023/05/17 00:27:53;;;;;;;8.90;4.32;;;8.10;99.90;;;;;;5109822;28;20027;-43
2023/05/17 00:30:18;;;;;;;12.10;3.97;;;8.20;99.90;;;;;;5108227;28;20019;-46
2023/05/17 00:32:45;;;;;;;11.93;4.60;;;8.10;99.90;;;;;;5109173;28;20024;-46
2023/05/17 00:35:11;;;;;;;11.60;4.57;;;8.00;99.90;;;;;;5109479;28;20016;-44
2023/05/17 00:37:37;;;;;;;12.57;4.55;;;8.00;99.90;;;;;;5088760;28;20389;-44
2023/05/17 00:40:04;;;;;;;12.05;5.47;;;8.10;99.90;;;;;;5095351;28;20384;-44
2023/05/17 00:42:30;;;;;;;15.35;4.88;;;8.00;99.90;;;;;;5107521;28;20460;-44
2023/05/17 00:44:56;;;;;;;11.25;4.60;;;8.00;99.90;;;;;;5089806;28;20032;-46
2023/05/17 00:47:22;;;;;;;11.13;4.22;;;8.00;99.90;;;;;;5091045;28;20032;-44
2023/05/17 00:49:47;;;;;;;14.35;4.30;;;8.00;99.90;;;;;;5092957;28;20035;-44
2023/05/17 00:52:13;;;;;;;13.43;5.50;;;8.10;99.90;;;;;;5089323;28;20485;-43
2023/05/17 00:54:39;;;;;;;12.80;4.18;;;8.10;99.90;;;;;;5109106;28;20057;-45
2023/05/17 00:57:05;;;;;;;17.90;4.57;;;8.10;99.90;;;;;;5109414;28;20085;-43
2023/05/17 00:59:31;;;;;;;15.93;5.18;;;8.10;99.90;;;;;;5109086;28;20028;-44
2023/05/17 01:01:57;;;;;;;13.73;5.05;;;8.10;99.90;;;;;;5108891;28;20104;-44
2023/05/17 01:04:23;;;;;;;14.82;4.68;;;8.10;99.90;;;;;;5108757;28;20486;-44
2023/05/17 01:06:49;;;;;;;13.10;4.30;;;8.00;99.90;;;;;;5108969;28;20024;-44
2023/05/17 01:09:16;;;;;;;9.35;4.28;;;7.90;99.90;;;;;;5107778;28;20526;-43
2023/05/17 01:12:18;;;;;;;13.80;4.00;;;7.90;99.90;;;;;;5108602;28;20026;-45
2023/05/17 01:15:20;;;;;;;14.23;4.20;;;7.90;99.90;;;;;;5087481;28;20027;-44
2023/05/17 01:18:08;;;;;;;12.98;5.03;;;7.90;99.90;;;;;;5095616;28;20113;-44
2023/05/17 01:20:40;;;;;;;15.88;5.20;;;7.80;99.90;;;;;;5104660;28;20388;-44
2023/05/17 01:23:43;;;;;;;16.73;5.07;;;7.80;99.90;;;;;;5088120;28;20054;-44
2023/05/17 01:26:37;;;;;;;13.35;4.55;;;7.80;99.90;;;;;;5101903;28;20024;-44
2023/05/17 01:29:04;;;;;;;17.75;5.03;;;7.80;99.90;;;;;;5108680;28;20051;-45
2023/05/17 01:31:30;;;;;;;16.13;5.60;;;7.80;99.90;;;;;;5108473;28;20028;-44
2023/05/17 01:33:57;;;;;;;14.15;4.85;;;7.80;99.90;;;;;;5108889;28;20024;-43
2023/05/17 01:36:25;;;;;;;15.30;4.90;;;7.80;99.90;;;;;;5107556;28;20015;-44
2023/05/17 01:38:54;;;;;;;15.70;5.75;;;7.80;99.90;;;;;;5107521;28;20130;-44
2023/05/17 01:41:32;;;;;;;12.63;4.70;;;7.80;99.90;;;;;;5108532;28;20019;-44
2023/05/17 01:44:25;;;;;;;16.95;5.28;;;7.80;99.90;;;;;;5100527;28;20056;-44
2023/05/17 01:46:59;;;;;;;20.60;6.38;;;7.70;99.90;;;;;;5082115;28;20024;-44
2023/05/17 01:49:30;;;;;;;15.68;4.28;;;7.70;99.90;;;;;;5103355;28;20462;-44
2023/05/17 01:52:18;;;;;;;;;;;7.70;99.90;;;;;;5086762;28;20020;-45
2023/05/17 01:55:02;;;;;;;13.88;4.63;;;7.70;99.90;;;;;;5095630;28;19904;-43
2023/05/17 01:57:32;;;;;;;14.68;4.72;;;7.70;99.90;;;;;;5111158;28;20053;-43
2023/05/17 02:00:00;;;;;;;15.73;5.50;;;7.70;99.90;;;;;;5112480;28;20015;-44
2023/05/17 02:02:27;;;;;;;13.55;4.97;;;7.70;99.90;;;;;;5112025;28;20626;-43
2023/05/17 02:04:53;;;;;;;16.98;5.85;;;7.70;99.90;;;;;;5112026;28;20103;-43
2023/05/17 02:07:20;;;;;;;13.95;5.15;;;7.70;99.90;;;;;;5112190;28;20097;-43
2023/05/17 02:09:46;;;;;;;20.50;5.30;;;7.70;99.90;;;;;;5111130;28;20076;-45
2023/05/17 02:12:11;;;;;;;14.80;4.70;;;7.70;99.90;;;;;;5111718;28;20016;-43
2023/05/17 02:14:37;;;;;;;14.50;5.38;;;7.60;99.90;;;;;;5112150;28;20007;-47
2023/05/17 02:17:04;;;;;;;18.33;5.53;;;7.70;99.90;;;;;;5109458;28;20030;-43
2023/05/17 02:19:30;;;;;;;18.00;5.22;;;7.60;99.90;;;;;;5092856;28;20020;-45
2023/05/17 02:21:56;;;;;;;15.95;4.82;;;7.70;99.90;;;;;;5097320;28;20374;-44
2023/05/17 02:24:22;;;;;;;12.45;5.28;;;7.60;99.90;;;;;;5111949;28;20370;-43
2023/05/17 02:26:48;;;;;;;17.00;5.95;;;7.70;99.90;;;;;;5110800;28;20093;-44
2023/05/17 02:29:14;;;;;;;23.77;6.00;;;7.60;99.90;;;;;;5111959;28;20509;-44
2023/05/17 02:31:40;;;;;;;23.35;5.22;;;7.60;99.90;;;;;;5111858;28;20476;-44
2023/05/17 02:34:05;;;;;;;12.57;4.93;;;7.60;99.90;;;;;;5112055;28;20015;-44
2023/05/17 02:36:31;;;;;;;20.27;6.15;;;7.70;99.90;;;;;;5107633;28;20103;-45
2023/05/17 02:38:57;;;;;;;14.95;5.07;;;7.80;99.90;;;;;;5096143;28;20015;-47
2023/05/17 02:41:23;;;;;;;18.17;5.75;;;7.80;99.90;;;;;;5111669;28;20491;-43
2023/05/17 02:43:49;;;;;;;20.05;5.90;;;7.80;99.90;;;;;;5110246;28;20166;-44
2023/05/17 02:46:15;;;;;;;15.75;5.18;;;7.80;99.90;;;;;;5091393;28;20477;-44
2023/05/17 02:48:43;;;;;;;17.42;6.72;;;7.80;99.90;;;;;;5090436;28;20038;-45
2023/05/17 02:51:09;;;;;;;13.30;5.55;;;7.90;99.90;;;;;;5093402;28;20491;-45
2023/05/17 02:53:35;;;;;;;14.30;5.18;;;7.90;99.90;;;;;;5093899;28;20043;-44
2023/05/17 02:56:01;;;;;;;17.75;5.50;;;7.90;99.90;;;;;;5099069;28;20148;-43
2023/05/17 02:58:26;;;;;;;18.77;5.43;;;7.90;99.90;;;;;;5093157;28;20023;-44
2023/05/17 03:00:52;;;;;;;14.82;4.88;;;7.80;99.90;;;;;;5111294;28;20023;-44
2023/05/17 03:03:18;;;;;;;22.20;5.88;;;7.80;99.90;;;;;;5102328;28;20489;-43
2023/05/17 03:05:47;;;;;;;14.40;5.10;;;7.70;99.90;;;;;;5088277;28;20107;-44
2023/05/17 03:08:13;;;;;;;17.40;6.03;;;7.70;99.90;;;;;;5107367;28;20016;-45
2023/05/17 03:10:39;;;;;;;10.98;4.97;;;7.70;99.90;;;;;;5092536;28;20020;-44
2023/05/17 03:13:07;;;;;;;17.75;6.80;;;7.70;99.90;;;;;;5097228;28;20016;-44
2023/05/17 03:15:39;;;;;;;19.58;7.05;;;7.60;99.90;;;;;;5112452;27;20016;-45
2023/05/17 03:18:05;;;;;;;13.65;5.05;;;7.60;99.90;;;;;;5097354;28;20072;-44
2023/05/17 03:20:31;;;;;;;19.23;6.78;;;7.50;99.90;;;;;;5109324;28;20028;-45
2023/05/17 03:22:57;;;;;;;18.00;6.90;;;7.50;99.90;;;;;;5110523;28;20019;-45
2023/05/17 03:25:22;;;;;;;17.80;7.30;;;7.40;99.90;;;;;;5109273;28;20065;-44
2023/05/17 03:27:48;;;;;;;23.20;6.45;;;7.40;99.90;;;;;;5110643;28;20020;-44
2023/05/17 03:30:14;;;;;;;16.42;6.95;;;7.40;99.90;;;;;;5110771;28;20016;-46
2023/05/17 03:32:43;;;;;;;19.98;6.43;;;7.30;99.90;;;;;;5089070;28;20219;-44
2023/05/17 03:35:09;;;;;;;24.98;7.25;;;7.30;99.90;;;;;;5088939;28;20054;-43
2023/05/17 03:37:35;;;;;;;17.52;5.93;;;7.20;99.90;;;;;;5093303;28;20070;-45
2023/05/17 03:40:00;;;;;;;20.17;6.88;;;7.20;99.90;;;;;;5109271;28;20046;-43
2023/05/17 03:42:26;;;;;;;21.50;6.85;;;7.20;99.90;;;;;;5101140;28;20078;-44
2023/05/17 03:44:53;;;;;;;19.67;6.25;;;7.20;99.90;;;;;;5103372;28;20478;-44
2023/05/17 03:47:18;;;;;;;18.95;7.18;;;7.20;99.90;;;;;;5110149;28;20067;-45
2023/05/17 03:49:44;;;;;;;17.27;6.25;;;7.20;99.90;;;;;;5110067;28;20437;-43
2023/05/17 03:52:12;;;;;;;15.60;7.18;;;7.20;99.90;;;;;;5109784;28;20064;-44
2023/05/17 03:54:38;;;;;;;17.20;6.13;;;7.20;99.90;;;;;;5110293;27;20022;-44
2023/05/17 03:57:06;;;;;;;22.77;6.60;;;7.20;99.90;;;;;;5110144;28;20019;-43
2023/05/17 03:59:35;;;;;;;23.48;7.35;;;7.20;99.90;;;;;;5110099;28;20024;-45
2023/05/17 04:02:01;;;;;;;21.02;6.88;;;7.20;99.90;;;;;;5109635;28;20034;-46
2023/05/17 04:04:29;;;;;;;27.10;8.50;;;7.20;99.90;;;;;;5092467;28;20661;-46
2023/05/17 04:06:55;;;;;;;25.38;6.97;;;7.20;99.90;;;;;;5088304;28;20059;-44
2023/05/17 04:09:24;;;;;;;29.00;10.40;;;7.20;99.90;;;;;;5105896;27;20020;-47
2023/05/17 04:11:50;;;;;;;18.73;8.25;;;7.30;99.90;;;;;;5109643;28;20027;-47
2023/05/17 04:14:18;;;;;;;24.88;6.57;;;7.30;99.90;;;;;;5108504;28;20020;-44
2023/05/17 04:16:46;;;;;;;20.42;6.07;;;7.40;99.90;;;;;;5095700;28;20017;-44
2023/05/17 04:19:12;;;;;;;21.70;7.07;;;7.50;99.90;;;;;;5088914;28;20020;-51
2023/05/17 04:21:44;;;;;;;23.02;7.18;;;7.60;99.90;;;;;;5108474;28;20550;-43
2023/05/17 04:24:10;;;;;;;15.63;6.30;;;7.70;99.90;;;;;;5109459;28;20532;-44
2023/05/17 04:26:36;;;;;;;22.77;7.28;;;7.80;99.90;;;;;;5109487;28;20118;-44
2023/05/17 04:29:05;;;;;;;18.15;7.28;;;7.80;99.90;;;;;;5110250;28;20016;-43
2023/05/17 04:31:31;;;;;;;22.83;6.65;;;7.90;99.90;;;;;;5109997;28;20472;-43
2023/05/17 04:33:57;;;;;;;25.05;6.85;;;8.00;99.90;;;;;;5109054;27;20081;-43
2023/05/17 04:36:24;;;;;;;28.50;7.05;;;8.00;99.90;;;;;;5109465;28;20016;-43
2023/05/17 04:38:50;;;;;;;19.30;6.78;;;8.10;99.90;;;;;;5108305;28;20024;-43
2023/05/17 04:41:16;;;;;;;21.05;6.43;;;8.10;99.90;;;;;;5108051;28;20024;-50
2023/05/17 04:43:41;;;;;;;22.27;7.05;;;8.10;99.90;;;;;;5108910;28;20030;-44
2023/05/17 04:46:07;;;;;;;23.48;8.93;;;8.20;99.90;;;;;;5103121;28;20099;-44
2023/05/17 04:48:33;;;;;;;24.40;7.20;;;8.20;99.90;;;;;;5088505;28;20067;-43
2023/05/17 04:51:05;;;;;;;24.73;6.72;;;8.30;99.90;;;;;;5094781;28;20021;-43
2023/05/17 04:53:31;;;;;;;33.88;7.18;;;8.40;99.90;;;;;;5107369;28;20426;-43
2023/05/17 04:55:57;;;;;;;22.90;7.93;;;8.40;99.90;;;;;;5109244;28;20015;-46
2023/05/17 04:58:25;;;;;;;24.75;7.57;;;8.30;99.90;;;;;;5107280;28;20051;-43
2023/05/17 05:00:51;;;;;;;18.92;5.80;;;8.40;99.90;;;;;;5107721;28;20538;-44
2023/05/17 05:03:17;;;;;;;25.25;6.03;;;8.40;99.90;;;;;;5108403;28;20407;-43
2023/05/17 05:05:46;;;;;;;23.33;7.07;;;8.50;99.90;;;;;;5109287;28;20103;-43
2023/05/17 05:08:12;;;;;;;23.77;6.60;;;8.60;99.90;;;;;;5109182;28;20460;-43
2023/05/17 05:10:40;;;;;;;19.13;6.65;;;8.70;99.90;;;;;;5108879;28;20034;-44
2023/05/17 05:13:08;;;;;;;20.92;6.85;;;8.70;99.90;;;;;;5108373;28;20027;-44
2023/05/17 05:15:34;;;;;;;22.38;5.88;;;8.70;99.90;;;;;;5093141;28;20023;-44
2023/05/17 05:18:00;;;;;;;21.00;6.22;;;8.70;99.90;;;;;;5092751;28;20031;-44
2023/05/17 05:20:26;;;;;;;23.15;6.15;;;8.70;99.90;;;;;;5104147;28;20073;-45
2023/05/17 05:22:52;;;;;;;31.23;8.10;;;8.70;99.90;;;;;;5090592;28;20051;-44
2023/05/17 05:25:18;;;;;;;19.60;6.55;;;8.60;99.90;;;;;;5084676;28;20063;-45
2023/05/17 05:27:43;;;;;;;21.42;7.03;;;8.60;99.90;;;;;;5086408;28;20508;-44
2023/05/17 05:30:09;;;;;;;23.77;6.45;;;8.60;99.90;;;;;;5089759;28;20032;-44
2023/05/17 05:32:36;;;;;;;20.00;6.68;;;8.60;99.90;;;;;;5090134;28;20514;-46
2023/05/17 05:35:04;;;;;;;16.02;6.30;;;8.60;99.90;;;;;;5090971;28;20022;-45
2023/05/17 05:37:32;;;;;;;16.80;6.32;;;8.70;99.90;;;;;;5091443;28;20516;-46
2023/05/17 05:39:58;;;;;;;26.75;5.47;;;8.90;99.90;;;;;;5090491;28;20493;-44
2023/05/17 05:42:27;;;;;;;16.35;5.35;;;8.90;99.90;;;;;;5090489;28;20035;-46
2023/05/17 05:44:53;;;;;;;14.00;4.97;;;9.00;99.90;;;;;;5090436;28;20086;-45
2023/05/17 05:47:19;;;;;;;29.65;5.85;;;9.10;99.90;;;;;;5090939;28;20493;-45
2023/05/17 05:49:45;;;;;;;25.00;5.90;;;9.20;99.90;;;;;;5089835;28;20016;-45
2023/05/17 05:52:11;;;;;;;16.85;4.60;;;9.40;99.90;;;;;;5086942;28;20021;-45
2023/05/17 05:54:36;;;;;;;25.08;5.72;;;9.40;99.90;;;;;;5089413;28;20023;-45
2023/05/17 05:57:02;;;;;;;23.02;5.18;;;9.50;99.90;;;;;;5089884;28;20115;-45
2023/05/17 05:59:28;;;;;;;25.08;6.15;;;9.60;99.90;;;;;;5090725;28;20466;-45
2023/05/17 06:01:54;;;;;;;19.58;5.82;;;9.60;99.90;;;;;;5092826;28;20027;-46
2023/05/17 06:04:19;;;;;;;19.92;4.82;;;9.70;99.90;;;;;;5096795;28;20109;-45
2023/05/17 06:06:45;;;;;;;25.17;4.65;;;9.90;99.90;;;;;;5089731;28;20047;-47
2023/05/17 06:09:11;;;;;;;20.05;5.47;;;9.90;99.90;;;;;;5090263;28;20027;-45
2023/05/17 06:11:37;;;;;;;18.50;5.00;;;10.00;99.90;;;;;;5088274;28;20047;-47
2023/05/17 06:14:03;;;;;;;23.38;6.28;;;10.00;99.90;;;;;;5090574;28;20162;-44
2023/05/17 06:16:28;;;;;;;11.60;4.13;;;10.00;99.90;;;;;;5089440;28;20482;-45
2023/05/17 06:18:54;;;;;;;21.92;4.70;;;10.20;99.90;;;;;;5087606;28;20016;-46
2023/05/17 06:21:20;;;;;;;17.83;3.53;;;10.20;99.90;;;;;;5108342;27;20501;-45
2023/05/17 06:23:47;;;;;;;19.75;4.30;;;10.10;99.90;;;;;;5090229;28;20059;-45
2023/05/17 06:26:13;;;;;;;19.02;4.20;;;10.00;99.90;;;;;;5088508;28;20131;-45
2023/05/17 06:28:39;;;;;;;20.95;4.47;;;10.00;99.90;;;;;;5090725;28;20111;-44
2023/05/17 06:31:04;;;;;;;19.58;5.43;;;10.00;99.90;;;;;;5095866;28;20016;-47
2023/05/17 06:33:30;;;;;;;19.60;4.72;;;10.10;99.90;;;;;;5092310;28;20060;-46
2023/05/17 06:35:55;;;;;;;24.70;5.90;;;10.20;99.90;;;;;;5089414;28;20027;-46
2023/05/17 06:38:21;;;;;;;18.65;5.30;;;10.20;99.90;;;;;;5087656;28;20243;-45
2023/05/17 06:40:52;;;;;;;14.38;4.13;;;10.30;99.90;;;;;;5089708;28;20023;-47
2023/05/17 06:43:18;;;;;;;;;;;10.30;99.90;;;;;;5090704;28;20027;-45
2023/05/17 06:45:43;;;;;;;18.10;3.65;;;10.40;99.90;;;;;;5087306;28;19912;-45
2023/05/17 06:48:09;;;;;;;12.55;3.90;;;10.60;99.90;;;;;;5089493;28;20028;-45
2023/05/17 06:50:35;;;;;;;17.83;3.78;;;10.60;99.90;;;;;;5089565;28;20021;-45
2023/05/17 06:53:01;;;;;;;11.77;3.40;;;10.70;99.90;;;;;;5089144;28;20034;-45
2023/05/17 06:55:26;;;;;;;12.75;3.10;;;10.60;99.90;;;;;;5089836;28;20016;-47
2023/05/17 06:57:52;;;;;;;14.68;3.08;;;10.70;99.90;;;;;;5090953;28;20126;-45
2023/05/17 07:00:18;;;;;;;14.13;3.65;;;10.70;99.90;;;;;;5095118;28;20112;-45
2023/05/17 07:02:43;;;;;;;15.88;3.20;;;10.70;99.90;;;;;;5089041;28;20024;-44
2023/05/17 07:05:09;;;;;;;19.50;3.05;;;10.80;99.90;;;;;;5089724;28;20069;-46
2023/05/17 07:07:35;;;;;;;16.08;3.42;;;10.90;99.90;;;;;;5087106;28;20035;-45
2023/05/17 07:10:00;;;;;;;13.20;2.95;;;10.80;99.90;;;;;;5089834;28;20035;-44
2023/05/17 07:12:26;;;;;;;14.52;3.25;;;10.80;99.90;;;;;;5088991;28;20012;-45
2023/05/17 07:14:52;;;;;;;10.55;2.80;;;10.90;99.90;;;;;;5091721;28;20028;-44
2023/05/17 07:17:17;;;;;;;24.30;3.92;;;10.90;99.90;;;;;;5089335;28;20030;-48
2023/05/17 07:19:43;;;;;;;15.65;3.25;;;10.70;99.90;;;;;;5091576;28;20115;-45
2023/05/17 07:22:09;;;;;;;16.75;3.40;;;10.60;99.90;;;;;;5093234;28;20016;-45
2023/05/17 07:24:34;;;;;;;11.82;2.92;;;10.70;99.90;;;;;;5089491;28;20028;-44
2023/05/17 07:27:00;;;;;;;16.27;3.22;;;10.70;99.90;;;;;;5088617;28;20628;-45
2023/05/17 07:29:26;;;;;;;15.35;3.67;;;10.80;99.90;;;;;;5092454;28;20443;-44
2023/05/17 07:31:51;;;;;;;21.73;3.85;;;10.90;99.90;;;;;;5086622;28;20016;-45
2023/05/17 07:34:19;;;;;;;20.40;3.15;;;11.00;99.90;;;;;;5090207;28;20069;-45
2023/05/17 07:36:45;;;;;;;15.60;3.28;;;10.90;99.90;;;;;;5076030;28;20020;-45
2023/05/17 07:39:11;;;;;;;25.35;2.92;;;11.10;99.10;;;;;;5088976;28;20017;-45
2023/05/17 07:41:37;;;;;;;15.57;3.13;;;11.10;99.90;;;;;;5091463;28;20109;-52
2023/05/17 07:44:03;;;;;;;11.57;2.80;;;11.20;98.20;;;;;;5088130;28;20443;-48
2023/05/17 07:46:28;;;;;;;14.60;3.30;;;11.40;99.90;;;;;;5085926;28;20012;-46
2023/05/17 07:48:54;;;;;;;13.15;3.38;;;11.80;96.90;;;;;;5088816;28;20107;-46
2023/05/17 07:51:20;;;;;;;12.85;2.70;;;12.20;97.10;;;;;;5087818;28;20028;-45
2023/05/17 07:53:48;;;;;;;11.60;2.47;;;12.30;97.40;;;;;;5088737;28;20035;-44
2023/05/17 07:56:14;;;;;;;11.23;3.42;;;12.40;95.40;;;;;;5090572;28;20420;-47
2023/05/17 07:58:40;;;;;;;15.55;3.78;;;12.30;94.60;;;;;;5089179;28;20110;-45
2023/05/17 08:01:08;;;;;;;8.35;2.88;;;12.30;95.20;;;;;;5092690;28;20068;-45
2023/05/17 08:03:37;;;;;;;13.60;2.63;;;12.40;93.90;;;;;;5087134;28;20615;-45
2023/05/17 08:06:02;;;;;;;13.75;3.05;;;12.70;94.80;;;;;;5089639;28;20447;-46
2023/05/17 08:08:28;;;;;;;11.60;2.78;;;12.80;93.00;;;;;;5087586;28;20165;-45
2023/05/17 08:10:54;;;;;;;10.43;2.67;;;12.60;94.40;;;;;;5094053;28;20059;-45
2023/05/17 08:13:20;;;;;;;16.33;3.45;;;12.70;92.80;;;;;;5086885;28;20044;-44
2023/05/17 08:15:45;;;;;;;20.95;3.88;;;12.50;93.20;;;;;;5089112;28;20032;-47
2023/05/17 08:18:11;;;;;;;18.58;3.15;;;12.60;94.30;;;;;;5089843;28;20071;-46
2023/05/17 08:20:37;;;;;;;13.55;2.60;;;12.80;94.10;;;;;;5089278;28;20099;-45
2023/05/17 08:23:03;;;;;;;12.10;3.45;;;13.60;92.50;;;;;;5087265;28;20036;-46
2023/05/17 08:25:29;;;;;;;16.08;3.20;;;14.60;89.20;;;;;;5087596;28;20028;-48
2023/05/17 08:27:57;;;;;;;10.45;2.50;;;14.80;86.80;;;;;;5087739;28;20031;-43
2023/05/17 08:30:23;;;;;;;11.07;2.38;;;15.30;84.70;;;;;;5086648;28;20020;-43
2023/05/17 08:32:59;;;;;;;8.07;2.78;;;15.40;81.00;;;;;;5086233;28;20546;-42
2023/05/17 08:35:25;;;;;;;15.82;3.50;;;14.80;78.60;;;;;;5088182;28;20098;-43
2023/05/17 08:37:50;;;;;;;9.95;2.80;;;14.30;80.40;;;;;;5087788;28;20033;-43
2023/05/17 08:40:19;;;;;;;12.98;2.97;;;14.10;82.60;;;;;;5087555;28;20016;-45
2023/05/17 08:42:45;;;;;;;10.07;2.70;;;13.70;81.60;;;;;;5087982;28;20081;-44
2023/05/17 08:45:12;;;;;;;12.32;3.38;;;13.70;84.10;;;;;;5090331;28;20024;-44
2023/05/17 08:47:40;;;;;;;16.42;4.07;;;13.60;81.70;;;;;;5086566;28;20078;-44
2023/05/17 08:50:06;;;;;;;12.10;3.08;;;13.50;81.60;;;;;;5088833;28;20039;-45
2023/05/17 08:52:32;;;;;;;10.88;2.72;;;13.50;82.50;;;;;;5086686;28;20051;-45
2023/05/17 08:55:00;;;;;;;14.15;3.08;;;14.10;80.30;;;;;;5085956;28;20060;-45
2023/05/17 08:57:28;;;;;;;12.00;2.80;;;14.10;80.10;;;;;;5093651;28;20027;-46
2023/05/17 08:59:54;;;;;;;9.50;2.65;;;14.20;78.20;;;;;;5087121;28;20467;-46
2023/05/17 09:02:21;;;;;;;14.75;3.30;;;14.50;77.90;;;;;;5090078;28;20024;-46
2023/05/17 09:04:54;;;;;;;10.75;2.55;;;15.90;77.90;;;;;;5087702;28;20023;-48
2023/05/17 09:07:23;;;;;;;9.57;2.50;;;16.60;73.10;;;;;;5087578;28;20358;-48
2023/05/17 09:09:52;;;;;;;7.50;2.22;;;18.10;73.70;;;;;;5087423;28;20090;-44
2023/05/17 09:12:19;;;;;;;11.85;3.17;;;18.90;66.80;;;;;;5087609;28;20024;-44
2023/05/17 09:14:45;;;;;;;12.13;3.05;;;19.30;68.80;;;;;;5087179;28;20099;-46
2023/05/17 09:17:15;;;;;;;11.07;2.55;;;18.70;66.10;;;;;;5089977;28;20103;-45
2023/05/17 09:19:46;;;;;;;6.43;2.50;;;17.80;66.20;;;;;;5085846;28;20024;-48
2023/05/17 09:22:13;;;;;;;8.13;2.78;;;17.00;64.70;;;;;;5081529;28;20117;-44
2023/05/17 09:24:40;;;;;;;6.85;2.65;;;16.40;64.70;;;;;;5086836;28;20020;-44
2023/05/17 09:27:06;;;;;;;9.43;2.63;;;17.10;66.30;;;;;;5087399;28;20032;-46
2023/05/17 09:29:33;;;;;;;8.73;2.72;;;18.20;62.60;;;;;;5091403;28;20377;-46
2023/05/17 09:32:24;;;;;;;11.35;2.50;;;19.30;65.90;;;;;;5091574;28;20020;-43
2023/05/17 09:34:52;;;;;;;9.82;2.42;;;21.40;60.70;;;;;;5084950;28;20032;-44
2023/05/17 09:37:19;;;;;;;8.13;2.13;;;22.40;57.70;;;;;;5086012;28;20457;-44
2023/05/17 09:39:46;;;;;;;11.57;3.13;;;23.00;54.40;;;;;;5086854;28;20028;-45
2023/05/17 09:42:13;;;;;;;9.88;3.05;;;23.30;52.60;;;;;;5093952;28;20107;-44
2023/05/17 09:44:56;;;;;;;12.95;2.78;;;21.80;51.20;;;;;;5087138;28;20099;-45
2023/05/17 09:47:30;;;;;;;10.88;2.58;;;20.50;55.80;;;;;;5080457;28;20033;-46
2023/05/17 09:49:59;;;;;;;7.93;2.88;;;19.30;59.40;;;;;;5064191;28;20096;-44
2023/05/17 09:52:30;;;;;;;13.25;3.42;;;18.80;61.50;;;;;;5049589;28;20052;-43
2023/05/17 09:54:58;;;;;;;8.88;3.13;;;17.70;60.80;;;;;;5074099;28;20039;-49
2023/05/17 09:57:26;;;;;;;12.38;3.35;;;17.30;62.90;;;;;;5066988;28;20039;-43
2023/05/17 09:59:56;;;;;;;15.30;3.97;;;16.70;64.10;;;;;;5066616;28;20470;-43
2023/05/17 10:02:31;;;;;;;16.63;3.78;;;16.30;64.00;;;;;;5069373;28;20336;-43
2023/05/17 10:04:57;;;;;;;13.30;3.58;;;16.30;68.00;;;;;;5070018;28;20075;-43
2023/05/17 10:07:24;;;;;;;12.00;3.20;;;17.10;66.50;;;;;;5051409;28;20025;-43
2023/05/17 10:09:52;;;;;;;10.82;3.25;;;18.60;62.20;;;;;;5054234;28;20394;-43
2023/05/17 10:12:21;;;;;;;13.63;3.22;;;19.60;61.10;;;;;;5066265;28;20021;-45
2023/05/17 10:14:47;;;;;;;11.95;3.10;;;21.20;60.00;;;;;;5066632;28;20012;-43
2023/05/17 10:17:14;;;;;;;10.00;3.25;;;22.80;59.30;;;;;;5071063;28;20029;-44
2023/05/17 10:19:40;;;;;;;13.57;3.42;;;24.50;54.90;;;;;;5051952;28;20078;-44
2023/05/17 10:22:06;;;;;;;8.32;3.25;;;23.90;47.30;;;;;;5070250;28;20029;-43
2023/05/17 10:24:33;;;;;;;8.55;3.20;;;22.90;51.40;;;;;;5051343;28;20107;-46
2023/05/17 10:26:59;;;;;;;11.18;3.15;;;22.50;53.50;;;;;;5051343;28;20021;-43
2023/05/17 10:29:25;;;;;;;14.85;3.55;;;23.20;53.50;;;;;;5069970;28;20021;-43
2023/05/17 10:31:51;;;;;;;9.20;2.95;;;23.70;48.90;;;;;;5070359;28;20443;-43
2023/05/17 10:34:18;;;;;;;12.32;3.05;;;23.70;52.00;;;;;;5070410;28;20027;-44
2023/05/17 10:36:44;;;;;;;6.20;2.70;;;24.00;47.90;;;;;;5069000;28;20108;-44
2023/05/17 10:39:11;;;;;;;11.07;2.85;;;24.10;51.20;;;;;;5069954;28;20032;-45
2023/05/17 10:41:39;;;;;;;13.57;7.45;;;24.20;47.30;;;;;;5068920;28;20382;-44
2023/05/17 10:44:07;;;;;;;9.77;4.82;;;22.70;50.70;;;;;;5070350;28;20021;-44
2023/05/17 10:46:33;;;;;;;12.43;2.97;;;22.50;52.20;;;;;;5074474;28;20117;-43
2023/05/17 10:49:00;;;;;;;13.20;2.38;;;22.70;48.60;;;;;;5070313;28;20407;-44
2023/05/17 10:51:31;;;;;;;7.28;2.58;;;23.70;49.10;;;;;;5071733;28;20486;-43
2023/05/17 10:54:11;;;;;;;9.65;2.95;;;24.90;51.00;;;;;;5052430;28;20016;-43
2023/05/17 10:56:41;;;;;;;9.20;2.58;;;25.40;46.90;;;;;;5070432;28;20385;-44
2023/05/17 10:59:17;;;;;;;6.47;2.13;;;24.60;47.70;;;;;;5073765;28;20020;-43
2023/05/17 11:01:58;;;;;;;6.38;2.33;;;24.60;50.80;;;;;;5070197;28;20455;-44
2023/05/17 11:04:25;;;;;;;5.22;2.38;;;25.10;47.40;;;;;;5070001;28;20048;-42
2023/05/17 11:06:52;;;;;;;9.25;2.47;;;25.70;47.90;;;;;;5070001;28;20021;-43
2023/05/17 11:09:22;;;;;;;10.02;2.38;;;26.20;47.90;;;;;;5069634;28;20039;-45
2023/05/17 11:12:07;;;;;;;;;;;26.00;44.90;;;;;;5053653;28;20029;-44
2023/05/17 11:15:05;;;;;;;5.57;2.35;;;26.10;46.90;;;;;;5068914;28;19916;-43
2023/05/17 11:17:43;;;;;;;9.15;2.83;;;25.80;47.90;;;;;;5053302;28;20044;-43
2023/05/17 11:20:27;;;;;;;8.68;2.33;;;25.60;45.20;;;;;;5063038;28;20032;-43
2023/05/17 11:23:06;;;;;;;6.68;2.60;;;25.00;45.90;;;;;;5066491;28;20635;-42
2023/05/17 11:25:36;;;;;;;6.18;2.40;;;24.90;45.60;;;;;;5069699;28;20391;-43
2023/05/17 11:28:05;;;;;;;;;;;25.60;49.10;;;;;;5074961;28;20470;-43
2023/05/17 11:30:31;;;;;;;9.07;2.58;;;25.50;46.30;;;;;;5068413;28;19962;-43
2023/05/17 11:33:03;;;;;;;9.10;3.00;;;24.70;44.90;;;;;;5068910;28;20389;-44
2023/05/17 11:35:35;;;;;;;10.77;3.05;;;24.00;46.00;;;;;;5069431;28;20016;-43
2023/05/17 11:38:15;;;;;;;7.63;2.60;;;24.20;49.00;;;;;;5068935;28;20028;-44
2023/05/17 11:40:42;;;;;;;5.35;2.38;;;25.00;46.70;;;;;;5052074;28;20398;-44
2023/05/17 11:43:16;;;;;;;9.65;2.67;;;25.50;47.60;;;;;;5067464;28;20103;-44
2023/05/17 11:46:02;;;;;;;8.45;2.25;;;25.50;43.60;;;;;;5050899;28;20075;-44
2023/05/17 11:48:29;;;;;;;6.90;2.10;;;25.50;44.60;;;;;;5072528;28;20032;-44
2023/05/17 11:50:55;;;;;;;7.75;2.72;;;24.90;46.70;;;;;;5068808;28;20074;-45
2023/05/17 11:53:23;;;;;;;8.25;2.50;;;24.80;45.00;;;;;;5069054;28;20017;-44
2023/05/17 11:55:50;;;;;;;9.43;3.00;;;25.10;46.20;;;;;;5049063;28;20052;-44
2023/05/17 11:58:23;;;;;;;5.95;2.30;;;25.00;48.20;;;;;;5068770;28;20028;-44
2023/05/17 12:00:53;;;;;;;9.43;2.53;;;24.90;49.10;;;;;;5069135;28;20025;-44
2023/05/17 12:03:27;;;;;;;10.20;2.03;;;23.80;47.10;;;;;;5050425;28;20438;-44
2023/05/17 12:06:13;;;;;;;8.85;2.22;;;22.50;49.20;;;;;;5067639;28;20032;-46
2023/05/17 12:08:42;;;;;;;5.88;2.42;;;21.80;49.10;;;;;;5068914;28;20158;-43
2023/05/17 12:11:13;;;;;;;9.95;2.38;;;21.30;53.10;;;;;;5062526;28;20028;-43
2023/05/17 12:13:40;;;;;;;8.68;2.15;;;21.30;50.80;;;;;;5070421;28;20017;-43
2023/05/17 12:16:10;;;;;;;9.73;2.83;;;21.20;51.10;;;;;;5064125;28;20059;-43
2023/05/17 12:18:35;;;;;;;7.85;2.75;;;21.00;50.20;;;;;;5068180;28;20025;-46
2023/05/17 12:21:01;;;;;;;10.68;2.20;;;21.00;51.90;;;;;;5070697;28;20086;-43
2023/05/17 12:23:29;;;;;;;8.38;2.67;;;20.70;52.30;;;;;;5073199;28;20493;-48
2023/05/17 12:26:05;;;;;;;10.52;3.05;;;20.20;53.40;;;;;;5050448;28;20021;-43
2023/05/17 12:28:31;;;;;;;9.20;2.97;;;19.30;53.80;;;;;;5068375;28;20041;-45
2023/05/17 12:30:57;;;;;;;6.88;2.38;;;19.20;56.20;;;;;;5068208;28;20440;-46
2023/05/17 12:33:24;;;;;;;9.18;2.25;;;19.60;57.60;;;;;;5067819;28;20679;-43
2023/05/17 12:35:50;;;;;;;5.43;1.90;;;19.90;56.90;;;;;;5072402;28;20039;-44
2023/05/17 12:38:16;;;;;;;7.28;2.33;;;20.10;55.80;;;;;;5075464;28;20116;-44
2023/05/17 12:40:42;;;;;;;9.60;2.80;;;20.30;55.00;;;;;;5069773;28;20363;-43
2023/05/17 12:43:08;;;;;;;6.60;2.80;;;20.30;57.30;;;;;;5068282;28;20023;-44
2023/05/17 12:45:34;;;;;;;5.97;1.90;;;20.30;53.70;;;;;;5049415;28;20032;-43
2023/05/17 12:47:59;;;;;;;7.03;1.88;;;20.40;51.00;;;;;;5066966;28;20043;-43
2023/05/17 12:50:34;;;;;;;7.07;1.85;;;19.80;54.60;;;;;;5069354;28;20115;-43